Time;durP1;ratioP1;P1;durP2;ratioP2;P2;SDS_P1;SDS_P2;PMS_P1;PMS_P2;Temp;Humidity;BMP_temperature;BMP_pressure;BME280_temperature;BME280_humidity;BME280_pressure;Samples;Min_cycle;Max_cycle;Signal;HPM_P1;HPM_P2
2021/01/07 00:01:26;;;;;;;10.67;7.37;;;2.10;99.90;;;3.03;98.51;99753.50;5009500;28;20279;-67
2021/01/07 00:03:54;;;;;;;9.83;7.00;;;2.10;99.90;;;2.84;99.19;99756.69;5009429;28;20289;-66
2021/01/07 00:06:21;;;;;;;10.47;7.77;;;2.10;99.90;;;2.90;99.44;99763.94;5008817;28;20198;-67
2021/01/07 00:08:48;;;;;;;11.00;7.90;;;2.00;99.90;;;2.74;99.22;99750.81;5009254;28;20766;-67
2021/01/07 00:11:15;;;;;;;9.90;7.93;;;2.00;99.90;;;3.08;98.24;99753.81;5009236;28;20206;-67
2021/01/07 00:13:43;;;;;;;9.07;7.23;;;2.00;99.90;;;3.06;96.91;99753.97;5008629;28;20705;-67
2021/01/07 00:16:10;;;;;;;8.87;7.10;;;2.10;99.90;;;3.15;96.44;99744.06;5009283;28;20242;-67
2021/01/07 00:18:38;;;;;;;10.93;8.67;;;2.10;99.90;;;3.09;96.85;99758.94;5008907;28;20666;-66
2021/01/07 00:21:05;;;;;;;9.07;7.57;;;2.20;99.90;;;2.97;98.12;99756.91;5008919;28;20204;-67
2021/01/07 00:23:33;;;;;;;9.40;6.90;;;2.10;99.90;;;2.95;98.05;99758.91;5009130;28;20281;-67
2021/01/07 00:26:00;;;;;;;8.73;6.83;;;2.10;99.90;;;2.97;97.40;99751.56;5008716;28;20260;-66
2021/01/07 00:28:27;;;;;;;9.60;7.03;;;2.10;99.90;;;2.97;97.00;99752.41;5008574;28;20263;-66
2021/01/07 00:30:55;;;;;;;8.50;6.43;;;2.10;99.90;;;2.94;97.52;99747.47;5009042;28;20239;-66
2021/01/07 00:33:22;;;;;;;8.50;6.70;;;2.00;99.90;;;2.89;97.23;99755.16;5008946;28;20330;-67
2021/01/07 00:35:50;;;;;;;9.23;6.87;;;2.10;99.90;;;2.87;96.76;99754.50;5008525;28;20297;-67
2021/01/07 00:38:17;;;;;;;8.07;6.20;;;2.00;99.90;;;2.72;97.93;99750.16;5009179;28;20298;-67
2021/01/07 00:40:44;;;;;;;8.53;6.57;;;1.90;99.90;;;2.77;97.60;99756.59;5008981;28;20343;-66
2021/01/07 00:43:12;;;;;;;9.10;6.50;;;1.90;99.90;;;2.83;97.37;99760.34;5008535;28;20264;-67
2021/01/07 00:45:39;;;;;;;8.53;6.40;;;1.90;99.90;;;3.05;96.11;99757.63;5009136;28;20309;-67
2021/01/07 00:48:08;;;;;;;8.80;6.43;;;2.00;99.90;;;3.06;95.55;99745.19;5009024;28;20575;-67
2021/01/07 00:50:35;;;;;;;9.57;6.70;;;2.00;99.90;;;3.02;95.90;99750.03;5009009;28;20203;-66
2021/01/07 00:53:03;;;;;;;9.03;6.23;;;2.00;99.90;;;2.78;95.60;99744.09;5008667;28;20294;-67
2021/01/07 00:55:30;;;;;;;10.03;6.47;;;2.00;99.90;;;2.97;95.67;99749.75;5008849;28;20203;-66
2021/01/07 00:57:57;;;;;;;11.90;7.00;;;2.00;99.90;;;2.97;95.21;99740.94;5008956;28;20634;-67
2021/01/07 01:00:25;;;;;;;8.70;6.53;;;2.00;99.90;;;3.08;94.91;99749.28;5008529;28;20294;-67
2021/01/07 01:02:52;;;;;;;9.20;6.97;;;2.10;99.90;;;2.82;95.68;99748.06;5008724;28;20641;-66
2021/01/07 01:05:20;;;;;;;9.63;7.50;;;2.00;99.90;;;3.05;95.74;99754.97;5008392;28;20294;-66
2021/01/07 01:07:47;;;;;;;10.83;7.57;;;2.00;99.90;;;2.95;95.56;99748.25;5008507;28;20340;-66
2021/01/07 01:10:15;;;;;;;10.33;6.90;;;2.00;99.90;;;2.94;95.67;99758.09;5008570;28;20250;-66
2021/01/07 01:12:42;;;;;;;8.83;6.37;;;2.00;99.90;;;2.86;94.87;99754.69;5008492;28;20252;-67
2021/01/07 01:15:14;;;;;;;9.60;6.80;;;2.00;99.90;;;2.84;95.40;99754.84;5008412;28;20460;-66
2021/01/07 01:17:42;;;;;;;9.23;6.33;;;2.00;99.90;;;2.96;94.64;99756.06;5008718;28;20209;-66
2021/01/07 01:20:13;;;;;;;9.77;6.37;;;2.00;99.90;;;2.79;95.72;99759.88;5009014;28;20221;-66
2021/01/07 01:22:44;;;;;;;9.63;6.77;;;2.00;99.90;;;2.91;95.83;99752.31;5008631;28;20288;-66
2021/01/07 01:25:13;;;;;;;8.87;6.43;;;2.00;99.90;;;2.87;95.74;99757.16;5008588;28;20657;-67
2021/01/07 01:27:43;;;;;;;8.30;6.37;;;2.00;99.90;;;2.74;95.98;99758.78;5008155;28;20700;-66
2021/01/07 01:30:15;;;;;;;9.23;6.30;;;1.90;99.90;;;2.89;94.97;99749.84;5008573;28;20589;-67
2021/01/07 01:32:44;;;;;;;9.80;6.90;;;1.90;99.90;;;2.94;93.69;99749.28;5008393;28;20235;-67
2021/01/07 01:35:13;;;;;;;9.37;6.50;;;2.00;99.90;;;2.77;95.25;99756.59;5008185;28;20223;-67
2021/01/07 01:37:43;;;;;;;8.83;6.40;;;2.00;99.90;;;2.97;93.94;99748.91;5008139;28;20727;-66
2021/01/07 01:40:13;;;;;;;8.60;6.57;;;2.00;99.90;;;2.86;94.08;99749.38;5009934;28;20719;-67
2021/01/07 01:42:41;;;;;;;8.53;6.67;;;2.00;99.90;;;2.92;94.20;99744.16;5011859;28;20626;-68
2021/01/07 01:45:10;;;;;;;10.00;7.33;;;2.00;99.90;;;2.89;94.88;99751.66;5011851;28;20234;-66
2021/01/07 01:47:37;;;;;;;10.57;7.03;;;2.00;99.90;;;2.57;95.94;99743.97;5011917;28;20264;-66
2021/01/07 01:50:06;;;;;;;9.23;7.10;;;1.90;99.90;;;2.63;96.18;99746.72;5011669;28;20199;-66
2021/01/07 01:52:37;;;;;;;10.10;6.87;;;1.80;99.90;;;2.85;94.80;99753.00;5011498;28;20280;-66
2021/01/07 01:55:07;;;;;;;10.77;6.80;;;1.90;99.90;;;2.81;96.10;99741.91;5011765;28;20215;-66
2021/01/07 01:57:36;;;;;;;9.17;6.60;;;1.90;99.90;;;2.83;95.68;99737.25;5012581;28;20195;-66
2021/01/07 02:00:06;;;;;;;9.73;6.90;;;1.90;99.90;;;3.01;94.90;99744.91;5014827;28;20203;-67
2021/01/07 02:02:33;;;;;;;9.23;6.60;;;2.00;99.90;;;3.14;93.72;99748.56;5011661;28;20206;-67
2021/01/07 02:05:02;;;;;;;9.67;6.93;;;2.00;99.90;;;3.03;94.62;99746.34;5011643;28;20293;-67
2021/01/07 02:07:31;;;;;;;10.70;7.27;;;2.10;99.90;;;2.84;95.58;99744.19;5011486;28;20248;-66
2021/01/07 02:09:58;;;;;;;11.00;7.80;;;2.00;99.90;;;2.88;94.81;99752.66;5011157;28;20603;-66
2021/01/07 02:12:27;;;;;;;9.03;6.57;;;1.90;99.90;;;2.74;95.33;99748.16;5010757;28;20639;-67
2021/01/07 02:14:54;;;;;;;9.63;7.27;;;1.90;99.90;;;3.02;93.46;99752.69;5011226;28;20307;-67
2021/01/07 02:17:21;;;;;;;9.90;7.37;;;2.00;99.90;;;2.91;94.40;99747.78;5011268;28;20210;-66
2021/01/07 02:19:49;;;;;;;10.90;7.63;;;2.00;99.90;;;2.86;93.91;99744.03;5011221;28;20209;-67
2021/01/07 02:22:17;;;;;;;9.43;6.93;;;2.00;99.90;;;2.80;94.10;99744.75;5011248;28;20202;-66
2021/01/07 02:24:44;;;;;;;8.93;6.63;;;2.00;99.90;;;2.91;92.99;99750.44;4998638;28;20693;-66
2021/01/07 02:27:13;;;;;;;8.40;6.23;;;2.00;99.90;;;2.97;93.05;99752.41;4991656;28;20208;-66
2021/01/07 02:29:41;;;;;;;9.37;6.70;;;2.00;99.90;;;2.98;92.68;99748.72;4991572;28;20215;-66
2021/01/07 02:32:10;;;;;;;9.03;6.40;;;2.00;99.90;;;2.85;93.86;99745.88;4991320;28;20237;-67
2021/01/07 02:34:38;;;;;;;9.67;6.90;;;2.00;99.90;;;3.00;92.91;99749.38;4991424;28;20231;-67
2021/01/07 02:37:06;;;;;;;7.30;6.00;;;2.00;99.90;;;3.01;92.30;99750.22;4991383;28;20231;-66
2021/01/07 02:39:34;;;;;;;8.50;6.10;;;2.00;99.90;;;2.98;91.94;99737.25;4991716;28;20204;-66
2021/01/07 02:42:02;;;;;;;7.67;5.73;;;2.00;99.90;;;2.74;91.94;99745.47;4990975;28;20688;-66
2021/01/07 02:44:29;;;;;;;8.33;5.97;;;2.00;99.90;;;2.93;92.81;99740.47;4991848;28;20205;-67
2021/01/07 02:46:56;;;;;;;8.90;6.13;;;2.00;99.90;;;2.95;92.65;99741.13;4991522;28;20212;-66
2021/01/07 02:49:23;;;;;;;8.53;6.00;;;2.00;99.90;;;3.11;91.69;99734.81;4991598;28;20596;-66
2021/01/07 02:51:51;;;;;;;7.70;6.10;;;2.00;99.90;;;2.69;92.68;99740.69;4991261;28;20315;-66
2021/01/07 02:54:18;;;;;;;8.23;5.83;;;1.90;99.90;;;3.01;92.26;99737.72;4991320;28;20228;-66
2021/01/07 02:56:46;;;;;;;8.73;6.30;;;2.00;99.90;;;2.92;92.99;99730.84;4990425;28;20667;-66
2021/01/07 02:59:13;;;;;;;9.77;6.40;;;2.00;99.90;;;2.80;93.36;99731.44;4990747;28;20674;-66
2021/01/07 03:01:40;;;;;;;10.43;7.43;;;1.90;99.90;;;2.75;93.68;99732.00;4990897;28;20306;-66
2021/01/07 03:04:08;;;;;;;10.23;7.50;;;1.90;99.90;;;3.11;92.20;99732.16;4990930;28;20261;-66
2021/01/07 03:06:35;;;;;;;11.33;7.53;;;2.00;99.90;;;3.04;92.75;99726.75;4990812;28;20212;-66
2021/01/07 03:09:04;;;;;;;12.07;8.43;;;2.00;99.90;;;2.90;93.92;99730.19;4990841;28;20207;-66
2021/01/07 03:11:31;;;;;;;12.53;8.50;;;2.00;99.90;;;2.92;93.19;99732.66;4990444;28;20579;-67
2021/01/07 03:13:59;;;;;;;13.03;9.10;;;2.00;99.90;;;2.81;93.60;99735.78;4990743;28;20296;-66
2021/01/07 03:16:26;;;;;;;13.07;9.53;;;1.90;99.90;;;3.07;92.91;99726.38;4990760;28;20203;-66
2021/01/07 03:18:53;;;;;;;13.03;9.17;;;2.00;99.90;;;2.63;94.03;99724.63;4990476;28;20249;-66
2021/01/07 03:21:21;;;;;;;14.87;10.30;;;2.00;99.90;;;2.87;94.57;99732.38;4990657;28;20231;-63
2021/01/07 03:23:48;;;;;;;13.70;9.30;;;1.90;99.90;;;3.03;93.46;99724.22;4990672;28;20240;-63
2021/01/07 03:26:16;;;;;;;13.23;8.83;;;2.00;99.90;;;2.54;95.70;99731.84;4989921;28;20207;-63
2021/01/07 03:28:43;;;;;;;12.80;8.53;;;1.90;99.90;;;2.97;93.81;99723.16;4990703;28;20639;-62
2021/01/07 03:31:13;;;;;;;11.93;8.20;;;1.90;99.90;;;2.94;93.31;99733.31;4990456;28;20207;-62
2021/01/07 03:33:40;;;;;;;13.10;9.10;;;2.00;99.90;;;2.63;94.42;99732.59;4990494;28;20241;-61
2021/01/07 03:36:07;;;;;;;12.67;8.83;;;1.90;99.90;;;2.70;94.71;99728.22;4989960;28;20247;-62
2021/01/07 03:38:34;;;;;;;12.60;8.37;;;1.90;99.90;;;2.25;96.66;99731.78;4990135;28;20747;-62
2021/01/07 03:41:02;;;;;;;11.23;7.87;;;1.70;99.90;;;2.45;96.38;99728.44;4989652;28;20200;-63
2021/01/07 03:43:29;;;;;;;11.63;8.07;;;1.70;99.90;;;2.83;94.34;99733.75;4990297;28;20713;-62
2021/01/07 03:45:56;;;;;;;12.67;8.87;;;1.80;99.90;;;2.84;94.88;99733.56;4990319;28;20294;-63
2021/01/07 03:48:24;;;;;;;10.73;8.00;;;1.80;99.90;;;2.79;95.59;99733.28;4993105;28;20203;-62
2021/01/07 03:50:53;;;;;;;11.07;8.07;;;1.90;99.90;;;2.39;95.80;99730.97;4995499;28;20207;-62
2021/01/07 03:53:20;;;;;;;11.53;8.00;;;1.70;99.90;;;2.69;95.22;99730.06;4993586;28;20218;-62
2021/01/07 03:55:47;;;;;;;11.73;8.43;;;1.80;99.90;;;2.62;95.67;99731.81;4989887;28;20639;-64
2021/01/07 03:58:14;;;;;;;11.40;8.17;;;1.80;99.90;;;2.82;94.81;99724.13;4990299;28;20239;-63
2021/01/07 04:00:41;;;;;;;10.33;7.50;;;1.80;99.90;;;2.74;93.52;99727.69;4989891;28;20257;-62
2021/01/07 04:03:08;;;;;;;9.60;7.23;;;1.80;99.90;;;2.76;92.86;99717.69;4989372;28;20209;-62
2021/01/07 04:05:36;;;;;;;9.00;6.93;;;1.90;99.90;;;2.76;93.43;99730.19;4989836;28;20698;-62
2021/01/07 04:08:04;;;;;;;10.47;7.20;;;1.90;99.90;;;2.87;92.83;99727.06;4989680;28;20683;-62
2021/01/07 04:10:31;;;;;;;10.30;7.03;;;1.90;99.90;;;2.79;93.23;99721.84;4989615;28;20238;-63
2021/01/07 04:12:58;;;;;;;9.33;6.70;;;1.90;99.90;;;2.83;92.94;99712.47;4989645;28;20239;-62
2021/01/07 04:15:25;;;;;;;10.77;6.60;;;1.90;99.90;;;2.49;93.59;99720.91;4989966;28;20667;-62
2021/01/07 04:17:53;;;;;;;8.57;6.43;;;1.80;99.90;;;2.55;94.91;99716.72;4990038;28;20204;-63
2021/01/07 04:20:20;;;;;;;9.67;7.20;;;1.80;99.90;;;2.90;93.81;99721.38;4989686;28;20762;-63
2021/01/07 04:22:48;;;;;;;10.03;6.87;;;1.80;99.90;;;2.92;92.92;99722.03;4989797;28;20223;-62
2021/01/07 04:25:16;;;;;;;8.50;5.93;;;2.00;99.90;;;2.77;93.48;99721.19;4989309;28;20291;-63
2021/01/07 04:27:43;;;;;;;9.40;6.20;;;1.90;99.90;;;2.70;94.00;99712.28;4989541;28;20682;-63
2021/01/07 04:30:12;;;;;;;9.13;6.00;;;1.90;99.90;;;2.40;95.14;99717.50;4989740;28;20284;-63
2021/01/07 04:32:40;;;;;;;9.90;6.60;;;1.80;99.90;;;2.44;95.20;99717.97;4989316;28;20235;-63
2021/01/07 04:35:08;;;;;;;7.73;5.97;;;1.70;99.90;;;2.80;94.15;99720.81;4989556;28;20223;-62
2021/01/07 04:37:35;;;;;;;8.53;6.43;;;1.80;99.90;;;2.77;94.11;99715.88;4989567;28;20260;-62
2021/01/07 04:40:05;;;;;;;10.33;6.23;;;1.80;99.90;;;2.73;94.59;99712.75;4988912;28;20297;-62
2021/01/07 04:42:32;;;;;;;9.13;6.40;;;1.90;99.90;;;2.65;94.61;99720.81;4989727;28;20239;-62
2021/01/07 04:45:02;;;;;;;8.13;6.43;;;1.80;99.90;;;2.68;94.35;99715.13;4989640;28;20249;-63
2021/01/07 04:47:30;;;;;;;9.60;7.87;;;1.80;99.90;;;2.75;94.07;99721.38;4989741;28;20235;-62
2021/01/07 04:49:58;;;;;;;9.90;6.87;;;1.80;99.90;;;2.66;93.73;99718.94;4989531;28;20243;-62
2021/01/07 04:52:26;;;;;;;9.37;6.33;;;1.80;99.90;;;2.66;94.73;99721.59;4989162;28;20203;-62
2021/01/07 04:54:54;;;;;;;8.53;6.13;;;1.80;99.90;;;2.65;93.74;99718.13;4988890;28;20310;-62
2021/01/07 04:57:23;;;;;;;8.47;6.40;;;1.80;99.90;;;2.34;95.85;99718.22;4989504;28;20257;-63
2021/01/07 04:59:50;;;;;;;9.10;6.20;;;1.70;99.90;;;2.62;96.10;99715.00;4989479;28;20246;-63
2021/01/07 05:02:18;;;;;;;9.23;6.47;;;1.80;99.90;;;2.59;95.49;99724.16;4989472;28;20204;-62
2021/01/07 05:04:50;;;;;;;9.57;6.87;;;1.70;99.90;;;2.62;96.15;99720.34;4989070;28;20235;-61
2021/01/07 05:07:18;;;;;;;8.70;6.70;;;1.70;99.90;;;2.40;95.49;99720.16;4988657;28;20207;-63
2021/01/07 05:09:47;;;;;;;8.03;5.87;;;1.70;99.90;;;2.45;95.41;99720.44;4989329;28;20280;-63
2021/01/07 05:12:15;;;;;;;11.47;9.53;;;1.70;99.90;;;2.71;95.04;99725.38;4989371;28;20214;-63
2021/01/07 05:14:47;;;;;;;8.57;6.23;;;1.70;99.90;;;2.64;94.82;99720.97;4990338;28;20318;-63
2021/01/07 05:17:16;;;;;;;8.67;6.60;;;1.80;99.90;;;2.56;94.21;99729.84;4992540;28;20191;-63
2021/01/07 05:19:43;;;;;;;9.33;6.27;;;1.80;99.90;;;2.63;94.41;99729.94;4992643;28;20203;-63
2021/01/07 05:22:11;;;;;;;8.73;6.73;;;1.70;99.90;;;2.62;94.41;99718.50;4992397;28;20207;-63
2021/01/07 05:24:40;;;;;;;9.63;7.10;;;1.80;99.90;;;2.79;94.19;99721.84;4992287;28;20246;-62
2021/01/07 05:27:10;;;;;;;9.07;6.60;;;1.80;99.90;;;2.74;93.50;99718.91;4992366;28;20247;-61
2021/01/07 05:29:41;;;;;;;8.33;6.73;;;1.90;99.90;;;2.70;93.79;99728.22;4992458;28;20560;-62
2021/01/07 05:32:12;;;;;;;7.93;5.67;;;1.90;99.90;;;2.73;93.37;99727.84;4992220;28;20231;-63
2021/01/07 05:34:47;;;;;;;8.47;5.93;;;1.80;99.90;;;2.45;93.91;99719.66;4992325;28;20239;-63
2021/01/07 05:37:19;;;;;;;11.23;6.50;;;1.80;99.90;;;2.72;94.05;99718.25;4992023;28;20234;-62
2021/01/07 05:39:48;;;;;;;9.00;6.43;;;1.80;99.90;;;2.72;93.87;99731.53;4992300;28;20207;-61
2021/01/07 05:42:16;;;;;;;7.83;6.00;;;1.80;99.90;;;2.59;93.74;99729.47;4992347;28;20292;-63
2021/01/07 05:44:46;;;;;;;8.07;5.63;;;1.80;99.90;;;2.81;93.53;99730.47;4992047;28;20208;-62
2021/01/07 05:47:27;;;;;;;7.77;5.60;;;1.90;99.90;;;2.59;93.70;99736.66;4991979;28;20195;-62
2021/01/07 05:49:56;;;;;;;8.17;5.90;;;1.80;99.90;;;2.74;93.85;99735.66;4992227;28;20187;-62
2021/01/07 05:52:29;;;;;;;7.47;6.03;;;1.90;99.90;;;2.77;92.50;99732.66;4992150;28;20235;-62
2021/01/07 05:54:59;;;;;;;9.10;6.13;;;1.90;99.90;;;2.89;92.91;99741.84;4991941;28;20254;-62
2021/01/07 05:57:28;;;;;;;8.03;6.00;;;1.90;99.90;;;2.92;91.01;99736.16;4992080;28;20272;-63
2021/01/07 05:59:58;;;;;;;7.37;5.70;;;1.90;99.90;;;2.79;92.71;99743.91;4992260;28;20257;-62
2021/01/07 06:02:28;;;;;;;8.43;6.07;;;1.90;99.90;;;2.58;94.70;99741.13;4991969;28;20257;-63
2021/01/07 06:05:01;;;;;;;8.50;6.10;;;1.90;99.90;;;2.59;93.67;99742.75;4991666;28;20496;-62
2021/01/07 06:07:29;;;;;;;10.07;6.23;;;1.80;99.90;;;2.73;93.50;99749.13;4991574;28;20192;-62
2021/01/07 06:10:01;;;;;;;8.57;6.27;;;1.80;99.90;;;2.68;92.18;99735.56;4991605;28;20599;-63
2021/01/07 06:12:28;;;;;;;14.57;10.37;;;1.90;99.90;;;2.89;92.33;99739.19;4991959;28;20227;-62
2021/01/07 06:15:01;;;;;;;9.07;6.70;;;1.90;99.90;;;2.97;90.67;99740.94;4991538;28;20788;-62
2021/01/07 06:17:31;;;;;;;10.47;7.20;;;2.00;99.90;;;2.77;91.83;99739.78;4991781;28;20221;-62
2021/01/07 06:19:58;;;;;;;8.00;6.30;;;1.90;99.90;;;2.85;91.14;99742.38;4991692;28;20223;-62
2021/01/07 06:22:26;;;;;;;11.70;7.10;;;1.90;99.90;;;2.48;92.89;99741.38;4991628;28;20302;-62
2021/01/07 06:24:56;;;;;;;9.87;7.03;;;1.90;99.90;;;2.49;92.70;99739.53;4991441;28;20214;-63
2021/01/07 06:27:29;;;;;;;9.97;6.83;;;1.80;99.90;;;2.89;91.95;99738.34;4991447;28;20211;-62
2021/01/07 06:30:45;;;;;;;9.47;6.97;;;1.80;99.90;;;2.98;91.43;99735.44;4992358;28;20234;-61
2021/01/07 06:33:15;;;;;;;9.77;6.77;;;1.90;99.90;;;2.99;90.99;99749.56;5000138;28;20314;-62
2021/01/07 06:35:44;;;;;;;9.60;6.80;;;2.00;99.90;;;2.81;91.59;99738.44;4991588;28;20234;-63
2021/01/07 06:38:25;;;;;;;11.23;7.67;;;1.90;99.90;;;2.84;92.09;99740.75;4991072;28;20294;-63
2021/01/07 06:40:59;;;;;;;11.77;7.60;;;2.00;99.90;;;2.90;90.90;99745.31;4991478;28;20238;-62
2021/01/07 06:43:27;;;;;;;9.73;7.20;;;1.90;99.90;;;2.82;91.33;99746.25;4991188;28;20195;-63
2021/01/07 06:45:56;;;;;;;10.07;6.43;;;1.90;99.90;;;2.84;91.00;99748.72;4991467;28;20235;-62
2021/01/07 06:48:33;;;;;;;10.73;6.73;;;2.00;99.90;;;2.74;91.97;99750.81;4991174;28;20203;-63
2021/01/07 06:51:03;;;;;;;10.57;7.57;;;1.90;99.90;;;2.93;91.97;99753.75;4990915;28;20208;-62
2021/01/07 06:53:37;;;;;;;9.33;7.27;;;2.00;99.90;;;2.92;91.69;99753.94;4991015;28;20620;-63
2021/01/07 06:56:16;;;;;;;10.63;7.77;;;1.90;99.90;;;3.00;90.43;99759.19;4991104;28;20219;-62
2021/01/07 06:58:46;;;;;;;10.47;7.87;;;2.10;99.90;;;2.80;90.99;99761.53;4990259;28;20218;-63
2021/01/07 07:01:19;;;;;;;11.03;7.20;;;2.00;99.90;;;2.74;91.09;99769.41;5092223;28;20214;-63
2021/01/07 07:03:52;;;;;;;12.53;7.90;;;2.00;99.90;;;3.02;89.69;99770.47;5093143;28;20208;-63
2021/01/07 07:06:27;;;;;;;11.90;8.10;;;2.00;99.90;;;2.90;89.35;99766.59;5093557;28;20297;-62
2021/01/07 07:08:54;;;;;;;9.83;6.97;;;2.20;99.90;;;2.81;90.59;99770.34;5093550;28;20271;-62
2021/01/07 07:11:51;;;;;;;11.60;8.10;;;2.00;99.90;;;3.03;89.29;99778.28;5093030;28;20238;-62
2021/01/07 07:14:21;;;;;;;10.00;7.27;;;2.00;99.90;;;2.88;90.41;99781.91;5092571;28;20220;-62
2021/01/07 07:16:50;;;;;;;10.47;7.00;;;2.10;99.90;;;2.85;89.63;99780.44;5092963;28;20654;-62
2021/01/07 07:19:28;;;;;;;12.03;7.60;;;2.00;99.90;;;2.74;89.82;99782.72;5093232;28;20204;-62
2021/01/07 07:21:57;;;;;;;10.13;7.30;;;2.00;99.90;;;2.80;90.21;99785.47;5093057;28;20219;-62
2021/01/07 07:24:36;;;;;;;9.57;6.53;;;1.90;99.90;;;2.66;91.31;99791.56;5093578;28;20652;-61
2021/01/07 07:27:09;;;;;;;11.10;7.23;;;1.90;99.90;;;2.82;90.70;99787.94;5019937;28;20207;-61
2021/01/07 07:29:41;;;;;;;11.13;7.37;;;1.90;99.90;;;2.86;91.37;99798.03;4990315;28;20183;-63
2021/01/07 07:32:24;;;;;;;9.77;7.50;;;1.90;99.90;;;2.97;90.10;99792.31;4990302;28;20261;-62
2021/01/07 07:34:54;;;;;;;11.43;7.23;;;2.00;99.90;;;2.90;90.04;99798.50;4990332;28;20672;-63
2021/01/07 07:37:24;;;;;;;10.80;7.10;;;2.00;99.90;;;2.89;90.61;99797.72;4989813;28;20279;-62
2021/01/07 07:40:00;;;;;;;9.80;6.80;;;2.00;99.90;;;3.04;89.59;99795.91;4990177;28;20205;-62
2021/01/07 07:42:29;;;;;;;8.00;6.40;;;2.00;99.90;;;3.01;89.15;99804.22;4991124;28;20197;-61
2021/01/07 07:44:58;;;;;;;10.10;6.63;;;2.00;99.90;;;2.89;90.38;99794.22;4990557;28;20203;-61
2021/01/07 07:47:26;;;;;;;9.83;7.37;;;2.00;99.90;;;3.09;89.23;99798.00;4989425;28;20207;-63
2021/01/07 07:49:58;;;;;;;10.03;7.30;;;2.10;99.90;;;2.93;89.92;99798.97;4990208;28;20208;-64
2021/01/07 07:52:26;;;;;;;11.33;7.40;;;2.10;99.90;;;3.05;89.60;99805.53;4986560;28;20238;-61
2021/01/07 07:55:04;;;;;;;11.93;7.93;;;2.20;99.90;;;3.11;90.00;99810.13;4985968;28;20306;-61
2021/01/07 07:57:45;;;;;;;18.37;7.20;;;2.20;99.90;;;3.08;89.30;99815.00;4986864;28;20207;-62
2021/01/07 08:00:14;;;;;;;9.50;6.87;;;2.20;99.90;;;3.19;88.84;99809.22;4986596;28;20226;-61
2021/01/07 08:02:43;;;;;;;9.57;7.10;;;2.20;99.90;;;3.11;89.54;99817.28;4986547;28;20590;-61
2021/01/07 08:05:26;;;;;;;9.23;7.20;;;2.20;99.90;;;3.05;89.53;99812.66;4988449;28;20260;-60
2021/01/07 08:07:53;;;;;;;9.90;6.60;;;2.20;99.90;;;2.94;89.98;99813.13;4987608;28;20223;-60
2021/01/07 08:10:21;;;;;;;10.87;7.20;;;2.20;99.90;;;3.11;89.94;99818.09;4987412;28;20599;-60
2021/01/07 08:12:51;;;;;;;9.93;6.93;;;2.20;99.90;;;3.10;89.76;99821.78;4986121;28;20558;-60
2021/01/07 08:15:27;;;;;;;9.17;7.30;;;2.20;99.90;;;3.11;90.29;99822.59;4986323;28;20273;-60
2021/01/07 08:17:55;;;;;;;10.43;8.03;;;2.20;99.90;;;3.21;89.45;99812.53;4986514;28;20223;-60
2021/01/07 08:20:25;;;;;;;11.17;7.50;;;2.20;99.90;;;2.99;91.44;99818.72;4985653;28;20214;-60
2021/01/07 08:22:54;;;;;;;12.13;7.90;;;2.20;99.90;;;3.11;91.58;99811.97;4986021;28;20671;-61
2021/01/07 08:25:25;;;;;;;10.57;7.30;;;2.20;99.90;;;3.23;90.23;99810.53;4986280;28;20231;-63
2021/01/07 08:27:59;;;;;;;10.10;7.57;;;2.20;99.90;;;3.39;88.66;99810.34;4985725;28;20249;-62
2021/01/07 08:30:27;;;;;;;10.63;7.97;;;2.30;99.90;;;3.36;88.71;99816.03;4985917;28;20640;-62
2021/01/07 08:33:00;;;;;;;13.23;8.20;;;2.40;99.90;;;3.49;88.63;99810.91;4985893;28;20314;-61
2021/01/07 08:35:29;;;;;;;13.70;8.43;;;2.40;99.90;;;3.29;89.51;99815.13;4985989;28;20212;-61
2021/01/07 08:37:57;;;;;;;10.93;8.20;;;2.40;99.90;;;3.35;88.61;99811.72;4985770;28;20215;-61
2021/01/07 08:40:24;;;;;;;10.93;7.93;;;2.40;99.90;;;3.33;88.52;99811.91;4986050;28;20209;-61
2021/01/07 08:42:55;;;;;;;11.23;8.03;;;2.40;99.90;;;3.42;88.20;99810.81;4985489;28;20208;-61
2021/01/07 08:45:28;;;;;;;12.47;8.07;;;2.50;99.90;;;3.38;88.59;99816.69;4985960;28;20696;-62
2021/01/07 08:48:05;;;;;;;12.83;8.53;;;2.50;99.90;;;3.34;88.98;99807.41;4986457;28;20211;-61
2021/01/07 08:50:34;;;;;;;10.43;7.30;;;2.40;99.90;;;3.54;87.96;99804.03;4989312;28;20190;-61
2021/01/07 08:53:08;;;;;;;12.50;8.33;;;2.50;99.90;;;3.45;88.08;99809.63;4988885;28;20280;-61
2021/01/07 08:55:51;;;;;;;11.93;8.20;;;2.50;99.90;;;3.72;87.76;99799.16;4989175;28;20637;-60
2021/01/07 08:58:26;;;;;;;11.67;7.90;;;2.60;99.90;;;3.63;87.23;99807.44;4989261;28;20250;-61
2021/01/07 09:00:54;;;;;;;11.40;7.77;;;2.60;99.90;;;3.70;86.93;99800.34;4989068;28;20291;-60
2021/01/07 09:03:22;;;;;;;12.17;8.13;;;2.70;99.90;;;3.71;87.11;99807.31;4989402;28;20306;-61
2021/01/07 09:06:07;;;;;;;10.70;8.00;;;2.70;99.90;;;3.61;87.53;99804.13;4989279;28;20197;-61
2021/01/07 09:08:34;;;;;;;13.73;8.03;;;2.80;99.90;;;3.51;88.00;99808.88;4988949;28;20186;-62
2021/01/07 09:11:06;;;;;;;13.07;8.83;;;2.70;99.90;;;3.49;88.21;99805.56;4989114;28;20231;-61
2021/01/07 09:13:33;;;;;;;13.03;8.73;;;2.70;99.90;;;3.66;87.60;99823.03;4988347;28;20270;-62
2021/01/07 09:16:12;;;;;;;13.37;8.40;;;2.70;99.90;;;3.50;87.80;99817.91;4988967;28;20285;-60
2021/01/07 09:18:39;;;;;;;12.63;8.77;;;2.70;99.90;;;3.52;87.31;99810.53;4989360;28;20219;-61
2021/01/07 09:21:14;;;;;;;13.40;8.53;;;2.70;99.90;;;3.67;87.91;99812.19;4988850;28;20644;-60
2021/01/07 09:23:45;;;;;;;14.07;9.00;;;2.70;99.90;;;3.85;86.83;99813.66;4988713;28;20231;-61
2021/01/07 09:26:28;;;;;;;12.33;8.47;;;2.80;99.90;;;4.06;85.35;99819.06;4988246;28;20648;-61
2021/01/07 09:28:55;;;;;;;13.00;7.73;;;3.00;99.90;;;4.08;85.41;99817.00;4987896;28;20715;-62
2021/01/07 09:31:23;;;;;;;14.97;9.20;;;3.00;99.90;;;3.99;85.38;99824.28;4988891;28;20267;-63
2021/01/07 09:33:50;;;;;;;11.53;8.27;;;3.10;99.90;;;4.23;85.31;99820.50;4988595;28;20188;-60
2021/01/07 09:36:18;;;;;;;10.73;8.03;;;3.10;99.90;;;4.12;84.43;99823.63;4987916;28;20256;-62
2021/01/07 09:38:46;;;;;;;10.50;7.60;;;3.20;99.90;;;4.23;84.85;99820.50;4988359;28;20249;-63
2021/01/07 09:41:13;;;;;;;12.20;7.70;;;3.20;99.90;;;4.18;85.38;99820.25;4988777;28;20211;-63
2021/01/07 09:43:40;;;;;;;11.63;8.83;;;3.30;99.90;;;4.19;84.62;99817.38;4988456;28;20777;-64
2021/01/07 09:46:07;;;;;;;10.57;7.60;;;3.30;99.90;;;4.08;84.64;99820.50;4988674;28;20288;-64
2021/01/07 09:48:35;;;;;;;30.77;19.70;;;3.20;99.90;;;4.15;84.68;99818.75;4988807;28;20295;-69
2021/01/07 09:51:02;;;;;;;12.90;9.10;;;3.20;99.90;;;4.00;86.04;99814.47;4988634;28;20219;-61
2021/01/07 09:53:30;;;;;;;12.17;8.57;;;3.10;99.90;;;4.23;84.97;99817.84;4988787;28;20583;-62
2021/01/07 09:55:57;;;;;;;11.80;8.17;;;3.20;99.90;;;4.14;84.44;99817.13;4988548;28;20257;-62
2021/01/07 09:58:25;;;;;;;11.27;8.43;;;3.20;99.90;;;4.25;85.00;99813.13;4988056;28;21455;-60
2021/01/07 10:00:52;;;;;;;11.30;8.13;;;3.30;99.90;;;4.13;85.12;99817.28;4987792;28;20204;-68
2021/01/07 10:03:19;;;;;;;13.87;9.67;;;3.20;99.90;;;4.35;84.82;99814.47;4988315;28;20684;-67
2021/01/07 10:05:46;;;;;;;13.43;8.80;;;3.30;99.90;;;4.15;85.17;99808.09;4988256;28;20290;-64
2021/01/07 10:08:14;;;;;;;12.97;9.17;;;3.30;99.90;;;4.21;84.42;99812.66;4988311;28;20200;-64
2021/01/07 10:10:42;;;;;;;12.80;9.10;;;3.30;99.90;;;4.26;85.04;99812.13;4988492;28;20299;-66
2021/01/07 10:13:10;;;;;;;11.97;8.37;;;3.30;99.90;;;4.38;84.04;99803.44;4988382;28;20213;-65
2021/01/07 10:15:40;;;;;;;11.77;8.00;;;3.30;99.90;;;4.21;84.33;99807.34;4988243;28;20263;-64
2021/01/07 10:18:07;;;;;;;13.23;8.60;;;3.40;99.90;;;4.22;84.72;99813.50;4988250;28;20271;-64
2021/01/07 10:20:35;;;;;;;12.53;8.57;;;3.30;99.90;;;4.35;83.96;99802.97;4988373;28;20583;-64
2021/01/07 10:23:10;;;;;;;14.53;9.23;;;3.40;99.90;;;4.45;84.44;99803.50;4987790;28;20252;-71
2021/01/07 10:25:40;;;;;;;11.47;8.37;;;3.40;99.90;;;4.40;82.89;99797.91;4988237;28;20189;-70
2021/01/07 10:28:10;;;;;;;13.60;9.07;;;3.50;99.90;;;4.57;84.34;99801.97;4987454;28;20266;-70
2021/01/07 10:30:38;;;;;;;13.53;9.20;;;3.50;99.90;;;4.37;83.88;99800.97;4988131;28;20597;-70
2021/01/07 10:33:05;;;;;;;13.43;8.80;;;3.50;99.90;;;4.37;84.90;99798.28;4987607;28;20279;-73
2021/01/07 10:35:37;;;;;;;12.13;8.57;;;3.50;99.90;;;4.35;84.33;99795.81;4987565;28;20687;-67
2021/01/07 10:38:06;;;;;;;13.30;8.87;;;3.50;99.90;;;4.38;85.23;99791.97;4987650;28;20246;-67
2021/01/07 10:40:43;;;;;;;13.30;8.80;;;3.50;99.90;;;4.28;84.85;99789.59;4987895;28;20206;-66